createdAt,value
2022-12-31T00:00:11.448Z,100.00
2022-12-31T00:02:39.370Z,100.00
2022-12-31T00:05:07.591Z,100.00
2022-12-31T00:10:04.870Z,100.00
2022-12-31T00:12:31.693Z,100.00
2022-12-31T00:14:58.493Z,100.00
2022-12-31T00:17:25.096Z,100.00
2022-12-31T00:19:51.533Z,100.00
2022-12-31T00:22:18.070Z,100.00
2022-12-31T00:24:44.726Z,100.00
2022-12-31T00:27:11.441Z,100.00
2022-12-31T00:29:38.022Z,100.00
2022-12-31T00:32:05.509Z,100.00
2022-12-31T00:34:34.156Z,100.00
2022-12-31T00:37:00.765Z,100.00
2022-12-31T00:39:27.491Z,100.00
2022-12-31T00:41:54.043Z,100.00
2022-12-31T00:44:20.619Z,100.00
2022-12-31T00:46:48.314Z,100.00
2022-12-31T00:49:15.050Z,100.00
2022-12-31T00:51:41.607Z,100.00
2022-12-31T00:54:09.412Z,100.00
2022-12-31T00:56:36.022Z,100.00
2022-12-31T00:59:02.537Z,100.00
2022-12-31T01:01:32.326Z,100.00
2022-12-31T01:04:03.931Z,100.00
2022-12-31T01:06:30.974Z,100.00
2022-12-31T01:08:57.491Z,100.00
2022-12-31T01:11:29.102Z,100.00
2022-12-31T01:13:59.389Z,100.00
2022-12-31T01:16:35.098Z,100.00
2022-12-31T01:19:04.934Z,100.00
2022-12-31T01:21:31.868Z,100.00
2022-12-31T01:23:59.961Z,100.00
2022-12-31T01:26:27.326Z,100.00
2022-12-31T01:28:53.905Z,100.00
2022-12-31T01:31:22.617Z,100.00
2022-12-31T01:33:49.942Z,100.00
2022-12-31T01:36:29.511Z,100.00
2022-12-31T01:38:58.312Z,100.00
2022-12-31T01:41:39.546Z,100.00
2022-12-31T01:44:12.459Z,100.00
2022-12-31T01:46:53.219Z,100.00
2022-12-31T01:49:39.108Z,100.00
2022-12-31T01:52:40.154Z,100.00
2022-12-31T01:55:27.233Z,100.00
2022-12-31T01:57:59.209Z,100.00
2022-12-31T02:00:25.697Z,100.00
2022-12-31T02:02:52.938Z,100.00
2022-12-31T02:05:49.541Z,100.00
2022-12-31T02:08:16.325Z,100.00
2022-12-31T02:10:43.320Z,100.00
2022-12-31T02:13:10.155Z,100.00
2022-12-31T02:16:03.544Z,100.00
2022-12-31T02:18:43.613Z,100.00
2022-12-31T02:21:36.842Z,100.00
2022-12-31T02:24:28.202Z,100.00
2022-12-31T02:26:59.808Z,100.00
2022-12-31T02:29:38.562Z,100.00
2022-12-31T02:32:17.810Z,100.00
2022-12-31T02:34:50.843Z,100.00
2022-12-31T02:37:20.724Z,100.00
2022-12-31T02:39:47.940Z,100.00
2022-12-31T02:42:15.053Z,100.00
2022-12-31T02:44:42.216Z,100.00
2022-12-31T02:47:11.288Z,100.00
2022-12-31T02:50:06.810Z,100.00
2022-12-31T02:52:49.238Z,100.00
2022-12-31T02:55:35.159Z,100.00
2022-12-31T02:58:43.018Z,100.00
2022-12-31T03:01:29.197Z,100.00
2022-12-31T03:04:15.968Z,100.00
2022-12-31T03:06:43.028Z,100.00
2022-12-31T03:09:13.186Z,100.00
2022-12-31T03:11:58.751Z,100.00
2022-12-31T03:14:25.440Z,100.00
2022-12-31T03:16:51.962Z,100.00
2022-12-31T03:19:37.231Z,100.00
2022-12-31T03:22:22.698Z,100.00
2022-12-31T03:25:08.557Z,100.00
2022-12-31T03:27:35.062Z,100.00
2022-12-31T03:30:01.696Z,100.00
2022-12-31T03:32:28.297Z,100.00
2022-12-31T03:34:55.881Z,100.00
2022-12-31T03:37:22.515Z,100.00
2022-12-31T03:39:49.070Z,100.00
2022-12-31T03:42:15.650Z,100.00
2022-12-31T03:44:42.160Z,100.00
2022-12-31T03:47:08.711Z,100.00
2022-12-31T03:49:35.214Z,100.00
2022-12-31T03:52:03.481Z,100.00
2022-12-31T03:54:30.058Z,100.00
2022-12-31T03:57:00.127Z,100.00
2022-12-31T03:59:26.980Z,100.00
2022-12-31T04:01:53.737Z,100.00
2022-12-31T04:04:26.512Z,100.00
2022-12-31T04:06:53.547Z,100.00
2022-12-31T04:09:20.387Z,100.00
2022-12-31T04:11:46.957Z,100.00
2022-12-31T04:14:13.684Z,100.00
2022-12-31T04:16:40.294Z,100.00
2022-12-31T04:19:08.281Z,100.00
2022-12-31T04:21:35.375Z,100.00
2022-12-31T04:24:02.820Z,100.00
2022-12-31T04:26:29.912Z,100.00
2022-12-31T04:28:56.564Z,100.00
2022-12-31T04:31:23.407Z,100.00
2022-12-31T04:33:50.204Z,100.00
2022-12-31T04:36:16.975Z,100.00
2022-12-31T04:38:43.578Z,100.00
2022-12-31T04:41:20.886Z,100.00
2022-12-31T04:43:52.610Z,100.00
2022-12-31T04:46:22.862Z,100.00
2022-12-31T04:48:49.480Z,100.00
2022-12-31T04:51:16.103Z,100.00
2022-12-31T04:53:42.658Z,100.00
2022-12-31T04:56:09.940Z,100.00
2022-12-31T04:58:38.084Z,100.00
2022-12-31T05:01:05.130Z,100.00
2022-12-31T05:03:32.032Z,100.00
2022-12-31T05:06:07.159Z,100.00
2022-12-31T05:08:34.058Z,100.00
2022-12-31T05:11:01.016Z,100.00
2022-12-31T05:13:32.948Z,100.00
2022-12-31T05:16:00.921Z,100.00
2022-12-31T05:18:28.278Z,100.00
2022-12-31T05:20:55.264Z,100.00
2022-12-31T05:23:24.063Z,100.00
2022-12-31T05:25:50.875Z,100.00
2022-12-31T05:28:17.804Z,100.00
2022-12-31T05:30:45.366Z,100.00
2022-12-31T05:33:12.057Z,100.00
2022-12-31T05:35:38.853Z,100.00
2022-12-31T05:38:05.392Z,100.00
2022-12-31T05:40:32.174Z,100.00
2022-12-31T05:42:58.657Z,100.00
2022-12-31T05:45:30.374Z,100.00
2022-12-31T05:47:57.815Z,100.00
2022-12-31T05:50:24.915Z,100.00
2022-12-31T05:52:58.336Z,100.00
2022-12-31T05:55:25.546Z,100.00
2022-12-31T05:57:52.346Z,100.00
2022-12-31T06:00:19.440Z,100.00
2022-12-31T06:02:46.410Z,100.00
2022-12-31T06:05:13.103Z,100.00
2022-12-31T06:07:39.606Z,100.00
2022-12-31T06:10:07.156Z,100.00
2022-12-31T06:12:33.880Z,100.00
2022-12-31T06:15:00.516Z,100.00
2022-12-31T06:17:32.390Z,100.00
2022-12-31T06:19:59.815Z,100.00
2022-12-31T06:22:26.748Z,100.00
2022-12-31T06:24:53.301Z,100.00
2022-12-31T06:27:19.967Z,100.00
2022-12-31T06:29:47.566Z,100.00
2022-12-31T06:32:15.763Z,100.00
2022-12-31T06:34:42.262Z,100.00
2022-12-31T06:37:09.729Z,100.00
2022-12-31T06:39:36.298Z,100.00
2022-12-31T06:42:02.778Z,100.00
2022-12-31T06:44:29.499Z,100.00
2022-12-31T06:46:56.126Z,100.00
2022-12-31T06:49:22.835Z,100.00
2022-12-31T06:51:49.384Z,100.00
2022-12-31T06:54:16.110Z,100.00
2022-12-31T06:56:43.095Z,100.00
2022-12-31T06:59:25.113Z,100.00
2022-12-31T07:01:51.756Z,100.00
2022-12-31T07:04:49.020Z,100.00
2022-12-31T07:07:29.293Z,100.00
2022-12-31T07:10:29.260Z,100.00
2022-12-31T07:13:02.576Z,100.00
2022-12-31T07:15:47.762Z,100.00
2022-12-31T07:18:24.280Z,100.00
2022-12-31T07:20:51.431Z,100.00
2022-12-31T07:23:18.594Z,100.00
2022-12-31T07:26:11.087Z,100.00
2022-12-31T07:28:53.142Z,100.00
2022-12-31T07:31:30.645Z,100.00
2022-12-31T07:34:34.150Z,100.00
2022-12-31T07:37:14.751Z,100.00
2022-12-31T07:40:05.991Z,100.00
2022-12-31T07:42:41.572Z,100.00
2022-12-31T07:45:19.715Z,100.00
2022-12-31T07:47:49.411Z,100.00
2022-12-31T07:50:18.114Z,100.00
2022-12-31T07:52:45.935Z,100.00
2022-12-31T07:55:12.876Z,100.00
2022-12-31T07:57:57.714Z,100.00
2022-12-31T08:00:24.601Z,100.00
2022-12-31T08:03:11.146Z,100.00
2022-12-31T08:05:43.899Z,100.00
2022-12-31T08:08:28.958Z,100.00
2022-12-31T08:11:17.051Z,100.00
2022-12-31T08:13:44.032Z,100.00
2022-12-31T08:16:13.141Z,100.00
2022-12-31T08:18:40.463Z,100.00
2022-12-31T08:21:28.193Z,100.00
2022-12-31T08:24:21.062Z,100.00
2022-12-31T08:27:19.679Z,100.00
2022-12-31T08:30:01.744Z,100.00
2022-12-31T08:32:39.348Z,100.00
2022-12-31T08:35:23.699Z,100.00
2022-12-31T08:38:02.474Z,100.00
2022-12-31T08:40:43.486Z,100.00
2022-12-31T08:43:29.036Z,100.00
2022-12-31T08:45:57.914Z,100.00
2022-12-31T08:48:42.550Z,100.00
2022-12-31T08:51:18.536Z,100.00
2022-12-31T08:53:45.670Z,100.00
2022-12-31T08:56:18.102Z,100.00
2022-12-31T08:59:00.721Z,100.00
2022-12-31T09:01:42.402Z,100.00
2022-12-31T09:04:28.988Z,100.00
2022-12-31T09:07:02.490Z,100.00
2022-12-31T09:09:34.813Z,100.00
2022-12-31T09:12:22.962Z,100.00
2022-12-31T09:15:00.662Z,100.00
2022-12-31T09:17:47.995Z,100.00
2022-12-31T09:20:21.420Z,100.00
2022-12-31T09:22:49.079Z,100.00
2022-12-31T09:25:21.621Z,100.00
2022-12-31T09:28:03.452Z,100.00
2022-12-31T09:30:55.976Z,100.00
2022-12-31T09:33:42.314Z,100.00
2022-12-31T09:36:17.000Z,100.00
2022-12-31T09:38:57.077Z,100.00
2022-12-31T09:41:41.748Z,100.00
2022-12-31T09:44:46.055Z,100.00
2022-12-31T09:47:37.759Z,100.00
2022-12-31T09:50:12.532Z,100.00
2022-12-31T09:53:12.432Z,100.00
2022-12-31T09:55:56.357Z,100.00
2022-12-31T09:58:48.356Z,100.00
2022-12-31T10:01:23.700Z,100.00
2022-12-31T10:04:25.467Z,100.00
2022-12-31T10:07:23.596Z,100.00
2022-12-31T10:12:53.580Z,100.00
2022-12-31T10:15:41.808Z,100.00
2022-12-31T10:18:17.365Z,100.00
2022-12-31T10:20:51.870Z,100.00
2022-12-31T10:23:31.345Z,100.00
2022-12-31T10:26:16.216Z,100.00
2022-12-31T10:28:55.877Z,100.00
2022-12-31T10:31:37.337Z,100.00
2022-12-31T10:34:33.054Z,100.00
2022-12-31T10:37:09.652Z,100.00
2022-12-31T10:40:01.127Z,100.00
2022-12-31T10:42:42.416Z,100.00
2022-12-31T10:45:41.123Z,100.00
2022-12-31T10:48:44.742Z,100.00
2022-12-31T10:51:19.244Z,100.00
2022-12-31T10:54:04.463Z,100.00
2022-12-31T10:56:49.211Z,100.00
2022-12-31T10:59:54.653Z,100.00
2022-12-31T11:02:33.707Z,100.00
2022-12-31T11:05:28.235Z,100.00
2022-12-31T11:08:32.643Z,100.00
2022-12-31T11:11:17.745Z,100.00
2022-12-31T11:14:21.821Z,100.00
2022-12-31T11:17:07.417Z,100.00
2022-12-31T11:20:00.186Z,100.00
2022-12-31T11:22:56.518Z,100.00
2022-12-31T11:25:33.386Z,100.00
2022-12-31T11:28:30.254Z,100.00
2022-12-31T11:31:05.603Z,100.00
2022-12-31T11:33:41.221Z,100.00
2022-12-31T11:37:04.709Z,100.00
2022-12-31T11:39:47.519Z,100.00
2022-12-31T11:42:39.005Z,97.94
2022-12-31T11:45:14.383Z,96.91
2022-12-31T11:48:28.956Z,96.45
2022-12-31T11:51:15.204Z,95.05
2022-12-31T11:53:41.853Z,92.92
2022-12-31T11:56:19.447Z,90.82
2022-12-31T11:58:53.648Z,89.69
2022-12-31T12:01:26.868Z,88.30
2022-12-31T12:03:53.645Z,87.52
2022-12-31T12:06:27.133Z,87.86
2022-12-31T12:09:01.621Z,87.94
2022-12-31T12:11:32.062Z,87.39
2022-12-31T12:13:58.828Z,87.18
2022-12-31T12:16:26.786Z,85.26
2022-12-31T12:19:06.357Z,84.97
2022-12-31T12:21:34.483Z,85.47
2022-12-31T12:24:18.925Z,85.74
2022-12-31T12:26:45.631Z,85.88
2022-12-31T12:29:14.833Z,85.58
2022-12-31T12:31:41.749Z,86.11
2022-12-31T12:34:30.196Z,86.27
2022-12-31T12:36:56.833Z,86.17
2022-12-31T12:39:28.763Z,85.66
2022-12-31T12:42:08.364Z,85.88
2022-12-31T12:44:38.558Z,85.20
2022-12-31T12:47:08.386Z,85.29
2022-12-31T12:49:46.044Z,84.97
2022-12-31T12:52:30.921Z,85.55
2022-12-31T12:55:18.948Z,84.91
2022-12-31T12:57:45.592Z,85.14
2022-12-31T13:00:39.823Z,85.07
2022-12-31T13:03:28.376Z,85.77
2022-12-31T13:06:33.559Z,85.41
2022-12-31T13:09:03.169Z,85.76
2022-12-31T13:11:40.410Z,84.88
2022-12-31T13:14:31.440Z,84.75
2022-12-31T13:17:30.071Z,84.07
2022-12-31T13:20:06.561Z,83.49
2022-12-31T13:22:44.640Z,83.39
2022-12-31T13:25:21.845Z,82.84
2022-12-31T13:27:52.134Z,82.78
2022-12-31T13:30:20.527Z,82.63
2022-12-31T13:32:56.903Z,81.56
2022-12-31T13:35:58.426Z,81.41
2022-12-31T13:38:30.757Z,81.68
2022-12-31T13:40:57.588Z,81.79
2022-12-31T13:43:35.369Z,81.49
2022-12-31T13:46:24.115Z,81.80
2022-12-31T13:48:58.690Z,82.73
2022-12-31T13:51:41.520Z,82.22
2022-12-31T13:54:29.943Z,84.21
2022-12-31T13:57:05.828Z,85.05
2022-12-31T13:59:38.257Z,84.94
2022-12-31T14:02:35.430Z,84.66
2022-12-31T14:05:31.278Z,84.50
2022-12-31T14:08:02.991Z,84.81
2022-12-31T14:10:57.796Z,84.41
2022-12-31T14:14:01.745Z,85.42
2022-12-31T14:16:40.882Z,85.62
2022-12-31T14:19:41.728Z,86.15
2022-12-31T14:22:23.680Z,86.58
2022-12-31T14:24:51.945Z,86.89
2022-12-31T14:27:36.799Z,86.86
2022-12-31T14:30:07.579Z,87.40
2022-12-31T14:32:43.035Z,87.93
2022-12-31T14:35:28.962Z,88.74
2022-12-31T14:38:33.208Z,89.11
2022-12-31T14:41:11.635Z,89.11
2022-12-31T14:44:03.444Z,88.98
2022-12-31T14:46:41.412Z,88.90
2022-12-31T14:49:42.006Z,89.17
2022-12-31T14:52:24.060Z,88.64
2022-12-31T14:55:02.535Z,88.61
2022-12-31T14:58:26.402Z,88.54
2022-12-31T15:00:58.109Z,87.92
2022-12-31T15:03:46.308Z,87.26
2022-12-31T15:06:47.887Z,87.38
2022-12-31T15:09:29.434Z,87.26
2022-12-31T15:12:04.942Z,87.60
2022-12-31T15:14:40.401Z,87.13
2022-12-31T15:17:15.794Z,87.39
2022-12-31T15:20:10.127Z,87.15
2022-12-31T15:22:49.686Z,86.38
2022-12-31T15:25:41.413Z,86.45
2022-12-31T15:28:26.694Z,85.30
2022-12-31T15:31:05.725Z,85.10
2022-12-31T15:33:37.881Z,85.28
2022-12-31T15:36:15.590Z,84.52
2022-12-31T15:38:44.866Z,83.51
2022-12-31T15:41:20.397Z,83.29
2022-12-31T15:44:13.813Z,83.28
2022-12-31T15:46:43.285Z,82.42
2022-12-31T15:49:16.780Z,82.26
2022-12-31T15:51:48.009Z,82.02
2022-12-31T15:54:31.588Z,81.24
2022-12-31T15:56:58.904Z,80.42
2022-12-31T15:59:27.385Z,80.58
2022-12-31T16:01:57.664Z,80.93
2022-12-31T16:04:39.164Z,80.63
2022-12-31T16:07:06.108Z,80.71
2022-12-31T16:09:36.252Z,80.93
2022-12-31T16:12:10.179Z,80.67
2022-12-31T16:14:40.583Z,80.01
2022-12-31T16:17:09.928Z,79.46
2022-12-31T16:19:43.651Z,77.85
2022-12-31T16:22:24.286Z,77.84
2022-12-31T16:27:46.140Z,77.22
2022-12-31T16:30:21.240Z,77.25
2022-12-31T16:32:50.000Z,76.55
2022-12-31T16:35:25.301Z,76.47
2022-12-31T16:38:10.165Z,76.15
2022-12-31T16:40:37.218Z,75.22
2022-12-31T16:43:04.179Z,75.84
2022-12-31T16:45:36.898Z,75.71
2022-12-31T16:48:17.120Z,76.00
2022-12-31T16:50:55.861Z,76.71
2022-12-31T16:53:26.113Z,76.79
2022-12-31T16:56:08.656Z,77.14
2022-12-31T16:58:40.519Z,77.83
2022-12-31T17:01:18.023Z,77.62
2022-12-31T17:03:56.471Z,77.85
2022-12-31T17:06:23.189Z,78.12
2022-12-31T17:09:02.404Z,77.81
2022-12-31T17:11:41.742Z,77.82
2022-12-31T17:14:08.201Z,77.79
2022-12-31T17:17:08.066Z,77.78
2022-12-31T17:19:42.892Z,78.19
2022-12-31T17:22:17.518Z,78.29
2022-12-31T17:24:47.064Z,78.24
2022-12-31T17:27:13.663Z,78.06
2022-12-31T17:29:40.273Z,78.11
2022-12-31T17:32:28.105Z,77.39
2022-12-31T17:34:54.577Z,77.95
2022-12-31T17:37:29.315Z,78.13
2022-12-31T17:40:48.783Z,78.32
2022-12-31T17:42:50.933Z,79.24
2022-12-31T17:45:24.400Z,79.90
2022-12-31T17:47:52.504Z,79.84
2022-12-31T17:50:21.271Z,80.73
2022-12-31T17:52:48.172Z,80.75
2022-12-31T17:55:15.315Z,81.71
2022-12-31T17:57:50.740Z,81.82
2022-12-31T18:00:20.992Z,83.24
2022-12-31T18:02:47.674Z,83.66
2022-12-31T18:05:20.044Z,84.50
2022-12-31T18:07:47.489Z,84.72
2022-12-31T18:10:16.660Z,85.13
2022-12-31T18:12:44.823Z,85.81
2022-12-31T18:15:15.448Z,86.21
2022-12-31T18:17:42.653Z,86.07
2022-12-31T18:20:09.731Z,86.65
2022-12-31T18:22:37.012Z,86.42
2022-12-31T18:25:04.350Z,87.01
2022-12-31T18:27:32.260Z,87.30
2022-12-31T18:30:04.464Z,87.25
2022-12-31T18:32:33.023Z,87.15
2022-12-31T18:34:59.482Z,87.22
2022-12-31T18:37:28.884Z,87.26
2022-12-31T18:39:55.461Z,87.21
2022-12-31T18:42:25.137Z,87.65
2022-12-31T18:44:51.689Z,87.31
2022-12-31T18:47:19.725Z,87.03
2022-12-31T18:49:48.529Z,87.51
2022-12-31T18:52:18.520Z,87.28
2022-12-31T18:54:45.755Z,87.72
2022-12-31T18:57:13.933Z,87.64
2022-12-31T18:59:40.922Z,87.71
2022-12-31T19:02:14.728Z,87.96
2022-12-31T19:04:41.329Z,88.01
2022-12-31T19:07:07.976Z,88.00
2022-12-31T19:09:54.600Z,88.23
2022-12-31T19:12:21.377Z,87.71
2022-12-31T19:14:47.832Z,88.21
2022-12-31T19:17:14.421Z,87.49
2022-12-31T19:19:40.993Z,87.37
2022-12-31T19:22:13.384Z,87.88
2022-12-31T19:24:39.903Z,87.92
2022-12-31T19:27:06.545Z,87.59
2022-12-31T19:29:32.978Z,87.20
2022-12-31T19:32:02.054Z,87.42
2022-12-31T19:34:28.758Z,87.14
2022-12-31T19:36:55.777Z,87.32
2022-12-31T19:39:22.232Z,87.11
2022-12-31T19:41:56.262Z,86.81
2022-12-31T19:44:25.225Z,86.04
2022-12-31T19:46:51.720Z,85.73
2022-12-31T19:49:18.394Z,85.92
2022-12-31T19:51:44.986Z,85.75
2022-12-31T19:54:14.703Z,85.89
2022-12-31T19:56:41.235Z,86.10
2022-12-31T19:59:09.725Z,85.84
2022-12-31T20:01:37.114Z,85.78
2022-12-31T20:04:06.273Z,85.60
2022-12-31T20:06:33.076Z,84.88
2022-12-31T20:08:59.590Z,84.28
2022-12-31T20:11:26.118Z,84.78
2022-12-31T20:13:53.775Z,85.02
2022-12-31T20:16:23.256Z,84.51
2022-12-31T20:18:50.519Z,84.67
2022-12-31T20:21:22.914Z,84.53
2022-12-31T20:23:51.120Z,84.86
2022-12-31T20:26:19.356Z,84.72
2022-12-31T20:28:46.621Z,84.72
2022-12-31T20:31:18.733Z,84.37
2022-12-31T20:33:45.534Z,83.85
2022-12-31T20:36:14.641Z,84.20
2022-12-31T20:38:41.521Z,83.65
2022-12-31T20:41:11.252Z,84.32
2022-12-31T20:43:37.910Z,83.36
2022-12-31T20:46:14.068Z,83.41
2022-12-31T20:48:41.384Z,84.07
2022-12-31T20:51:08.517Z,83.08
2022-12-31T20:53:35.035Z,83.57
2022-12-31T20:56:08.697Z,83.63
2022-12-31T20:58:35.816Z,83.34
2022-12-31T21:01:06.546Z,82.80
2022-12-31T21:06:22.903Z,82.64
2022-12-31T21:08:49.539Z,81.72
2022-12-31T21:11:35.196Z,80.96
2022-12-31T21:14:02.441Z,80.87
2022-12-31T21:16:28.991Z,80.74
2022-12-31T21:18:58.858Z,80.57
2022-12-31T21:21:25.346Z,79.50
2022-12-31T21:23:52.162Z,80.56
2022-12-31T21:26:18.871Z,80.11
2022-12-31T21:28:45.541Z,79.34
2022-12-31T21:31:14.199Z,79.88
2022-12-31T21:33:44.203Z,79.14
2022-12-31T21:36:10.814Z,79.01
2022-12-31T21:38:37.527Z,78.79
2022-12-31T21:41:06.128Z,78.50
2022-12-31T21:43:32.816Z,78.44
2022-12-31T21:46:01.524Z,78.72
2022-12-31T21:48:28.104Z,77.94
2022-12-31T21:51:05.571Z,77.72
2022-12-31T21:53:36.594Z,78.01
2022-12-31T21:56:10.572Z,78.37
2022-12-31T21:59:08.633Z,77.80
2022-12-31T22:01:53.965Z,77.98
2022-12-31T22:04:59.902Z,78.08
2022-12-31T22:07:07.259Z,77.79
2022-12-31T22:09:34.009Z,77.82
2022-12-31T22:12:00.565Z,78.13
2022-12-31T22:14:27.061Z,77.92
2022-12-31T22:16:53.597Z,77.92
2022-12-31T22:19:20.049Z,77.08
2022-12-31T22:21:46.550Z,77.48
2022-12-31T22:24:13.034Z,77.28
2022-12-31T22:26:44.796Z,77.08
2022-12-31T22:29:13.323Z,77.07
2022-12-31T22:31:40.144Z,76.78
2022-12-31T22:34:07.100Z,76.42
2022-12-31T22:36:34.832Z,76.42
2022-12-31T22:39:01.593Z,76.51
2022-12-31T22:41:28.541Z,76.17
2022-12-31T22:44:05.827Z,75.71
2022-12-31T22:46:33.983Z,76.33
2022-12-31T22:49:02.176Z,75.57
2022-12-31T22:51:56.643Z,75.84
2022-12-31T22:54:17.147Z,75.21
2022-12-31T22:56:43.765Z,75.11
2022-12-31T22:59:10.910Z,75.00
2022-12-31T23:01:37.723Z,75.81
2022-12-31T23:04:04.812Z,75.16
2022-12-31T23:06:31.968Z,75.14
2022-12-31T23:09:17.339Z,74.91
2022-12-31T23:11:43.996Z,74.78
2022-12-31T23:14:34.534Z,75.35
2022-12-31T23:17:29.654Z,74.93
2022-12-31T23:20:17.571Z,74.63
2022-12-31T23:23:02.576Z,75.06
2022-12-31T23:25:32.845Z,75.30
2022-12-31T23:28:00.648Z,75.23
2022-12-31T23:30:27.412Z,75.05
2022-12-31T23:32:54.113Z,75.12
2022-12-31T23:35:20.708Z,74.90
2022-12-31T23:37:47.273Z,74.89
2022-12-31T23:40:20.629Z,75.63
2022-12-31T23:42:47.820Z,75.27
2022-12-31T23:45:14.593Z,75.27
2022-12-31T23:47:41.469Z,73.96
2022-12-31T23:50:08.466Z,74.30
2022-12-31T23:52:35.142Z,73.84
2022-12-31T23:55:03.548Z,73.11
2022-12-31T23:57:30.204Z,73.40
2022-12-31T23:59:56.780Z,73.23
